Time;durP1;ratioP1;P1;durP2;ratioP2;P2;SDS_P1;SDS_P2;PMS_P1;PMS_P2;Temp;Humidity;BMP_temperature;BMP_pressure;BME280_temperature;BME280_humidity;BME280_pressure;Samples;Min_cycle;Max_cycle;Signal;HPM_P1;HPM_P2
2023/05/20 00:01:11;;;;;;;17.70;14.10;;;;;;;9.22;100.00;97529.23;109106;1273;22960;-81
2023/05/20 00:03:42;;;;;;;18.50;14.20;;;;;;;9.22;100.00;97528.85;109093;1270;22533;-81
2023/05/20 00:06:13;;;;;;;19.20;15.40;;;;;;;9.23;100.00;97530.02;109072;1274;23835;-80
2023/05/20 00:08:44;;;;;;;18.20;14.60;;;;;;;9.23;100.00;97525.26;109110;1266;22593;-81
2023/05/20 00:11:14;;;;;;;17.40;13.10;;;;;;;9.22;100.00;97524.50;109103;1273;22577;-80
2023/05/20 00:13:45;;;;;;;19.10;14.20;;;;;;;9.23;100.00;97521.76;109148;1268;25272;-80
2023/05/20 00:16:16;;;;;;;18.80;13.90;;;;;;;9.21;100.00;97513.65;109078;1268;22554;-80
2023/05/20 00:18:47;;;;;;;18.80;14.90;;;;;;;9.18;100.00;97516.16;109095;1267;25462;-81
2023/05/20 00:21:18;;;;;;;18.60;14.50;;;;;;;9.17;100.00;97516.35;109096;1269;22537;-81
2023/05/20 00:23:49;;;;;;;18.80;14.20;;;;;;;9.16;100.00;97518.58;109105;1273;24251;-81
2023/05/20 00:26:21;;;;;;;19.40;14.00;;;;;;;9.15;100.00;97514.54;109076;1270;22983;-81
2023/05/20 00:28:52;;;;;;;18.60;15.10;;;;;;;9.16;100.00;97510.95;109105;1251;22641;-81
2023/05/20 00:31:23;;;;;;;19.60;14.80;;;;;;;9.16;100.00;97508.73;109080;1273;22494;-81
2023/05/20 00:33:54;;;;;;;20.70;15.10;;;;;;;9.17;100.00;97513.49;109083;1273;22526;-81
2023/05/20 00:36:25;;;;;;;20.90;15.00;;;;;;;9.18;100.00;97511.61;109117;1269;22831;-80
2023/05/20 00:38:55;;;;;;;19.70;15.60;;;;;;;9.17;100.00;97507.11;109140;1268;22689;-81
2023/05/20 00:41:26;;;;;;;19.50;15.00;;;;;;;9.18;100.00;97503.51;109168;1267;22662;-80
2023/05/20 00:43:58;;;;;;;19.70;15.10;;;;;;;9.18;100.00;97505.16;109014;1268;22556;-81
2023/05/20 00:46:30;;;;;;;20.70;15.00;;;;;;;9.18;100.00;97506.84;108948;1268;22541;-81
2023/05/20 00:49:01;;;;;;;19.50;14.70;;;;;;;9.18;100.00;97509.86;108915;1268;22476;-81
2023/05/20 00:51:33;;;;;;;19.30;14.80;;;;;;;9.18;100.00;97510.96;109014;1267;22559;-81
2023/05/20 00:54:04;;;;;;;20.50;15.20;;;;;;;9.17;100.00;97509.43;109034;1274;22463;-80
2023/05/20 00:56:35;;;;;;;19.30;15.10;;;;;;;9.17;100.00;97512.23;108880;1267;191656;-80
2023/05/20 00:59:06;;;;;;;20.10;14.70;;;;;;;9.17;100.00;97508.85;109049;1275;23738;-81
2023/05/20 01:01:37;;;;;;;20.30;15.60;;;;;;;9.17;100.00;97506.89;109016;1251;22704;-81
2023/05/20 01:04:09;;;;;;;20.40;16.40;;;;;;;9.18;100.00;97504.94;109036;1274;22479;-81
2023/05/20 01:06:39;;;;;;;20.10;15.50;;;;;;;9.17;100.00;97503.45;109015;1274;23809;-81
2023/05/20 01:09:10;;;;;;;19.40;16.00;;;;;;;9.17;100.00;97499.43;109047;1275;22644;-80
2023/05/20 01:11:48;;;;;;;19.80;15.30;;;;;;;9.17;100.00;97496.67;108989;1275;24255;-81
2023/05/20 01:14:22;;;;;;;17.60;13.90;;;;;;;9.17;100.00;97494.34;109035;1275;22524;-81
2023/05/20 01:16:57;;;;;;;18.00;13.40;;;;;;;9.16;100.00;97491.69;109052;1251;22644;-81
2023/05/20 01:19:38;;;;;;;17.90;14.00;;;;;;;9.14;100.00;97497.63;109000;1275;24341;-81
2023/05/20 01:22:12;;;;;;;17.60;13.20;;;;;;;9.13;100.00;97498.41;109022;1274;22586;-80
2023/05/20 01:24:44;;;;;;;20.20;13.80;;;;;;;9.14;100.00;97500.80;109058;1268;22581;-80
2023/05/20 01:27:15;;;;;;;15.80;12.40;;;;;;;9.13;100.00;97503.75;109068;1275;22463;-80
2023/05/20 01:29:47;;;;;;;15.90;12.60;;;;;;;9.13;100.00;97502.48;109013;1274;22521;-81
2023/05/20 01:32:22;;;;;;;16.90;13.60;;;;;;;9.13;100.00;97505.23;109001;1264;22519;-81
2023/05/20 01:34:55;;;;;;;16.30;12.60;;;;;;;9.14;100.00;97505.71;109074;1275;22870;-81
2023/05/20 01:37:27;;;;;;;14.90;12.00;;;;;;;9.14;100.00;97505.15;109044;1274;23707;-80
2023/05/20 01:39:59;;;;;;;16.10;12.10;;;;;;;9.15;100.00;97500.10;109016;1274;23013;-80
2023/05/20 01:42:31;;;;;;;15.30;11.80;;;;;;;9.14;100.00;97500.17;109106;1272;22469;-81
2023/05/20 01:45:03;;;;;;;15.30;10.90;;;;;;;9.14;100.00;97500.79;109142;1272;23817;-81
2023/05/20 01:47:34;;;;;;;13.70;10.70;;;;;;;9.14;100.00;97498.31;109214;1272;23024;-81
2023/05/20 01:50:06;;;;;;;14.30;11.00;;;;;;;9.14;100.00;97492.02;109152;1272;25425;-81
2023/05/20 01:52:36;;;;;;;14.50;11.20;;;;;;;9.14;100.00;97489.59;109164;1266;22520;-80
2023/05/20 01:55:08;;;;;;;14.80;10.50;;;;;;;9.14;100.00;97488.87;109180;1273;22468;-81
2023/05/20 01:57:39;;;;;;;13.50;10.40;;;;;;;9.15;100.00;97493.64;109178;1272;23190;-81
2023/05/20 02:00:12;;;;;;;14.30;10.40;;;;;;;9.16;100.00;97489.58;109210;1272;22478;-81
2023/05/20 02:02:43;;;;;;;14.40;10.70;;;;;;;9.16;100.00;97487.09;109189;1270;24369;-81
2023/05/20 02:05:14;;;;;;;13.70;10.60;;;;;;;9.16;100.00;97485.18;109172;1272;23279;-81
2023/05/20 02:07:44;;;;;;;12.80;9.20;;;;;;;9.16;100.00;97484.88;109151;1272;22595;-80
2023/05/20 02:10:15;;;;;;;12.60;8.90;;;;;;;9.17;100.00;97482.82;109194;1270;23409;-81
2023/05/20 02:12:48;;;;;;;10.90;8.90;;;;;;;9.17;100.00;97482.77;109180;1272;22478;-81
2023/05/20 02:15:19;;;;;;;10.80;8.60;;;;;;;9.18;100.00;97483.03;109235;1265;22528;-81
2023/05/20 02:17:50;;;;;;;12.00;9.60;;;;;;;9.18;100.00;97477.16;109178;1273;22598;-81
2023/05/20 02:20:21;;;;;;;11.10;8.20;;;;;;;9.19;100.00;97479.55;109212;1272;22544;-81
2023/05/20 02:22:52;;;;;;;11.70;8.80;;;;;;;9.20;100.00;97488.51;109198;1272;23939;-81
2023/05/20 02:25:23;;;;;;;11.70;8.80;;;;;;;9.21;100.00;97489.58;109204;1266;22713;-81
2023/05/20 02:27:54;;;;;;;10.70;8.00;;;;;;;9.22;100.00;97490.80;109164;1272;22508;-81
2023/05/20 02:30:25;;;;;;;12.60;8.50;;;;;;;9.23;100.00;97495.25;109174;1272;25275;-81
2023/05/20 02:32:56;;;;;;;9.60;7.60;;;;;;;9.23;100.00;97498.91;109204;1266;22537;-80
2023/05/20 02:35:27;;;;;;;10.90;8.40;;;;;;;9.24;100.00;97497.91;109172;1265;22502;-81
2023/05/20 02:37:58;;;;;;;11.10;8.70;;;;;;;9.24;100.00;97497.38;109234;1272;22667;-81
2023/05/20 02:40:29;;;;;;;10.60;8.50;;;;;;;9.25;100.00;97497.92;109139;1272;23933;-81
2023/05/20 02:43:00;;;;;;;13.20;9.10;;;;;;;9.25;100.00;97497.70;109190;1271;22562;-80
2023/05/20 02:45:31;;;;;;;10.90;8.30;;;;;;;9.26;100.00;97500.41;109237;1272;23756;-81
2023/05/20 02:48:02;;;;;;;9.90;8.10;;;;;;;9.27;100.00;97494.66;109216;1266;22581;-80
2023/05/20 02:50:34;;;;;;;8.10;6.70;;;;;;;9.27;100.00;97493.12;109172;1262;22684;-80
2023/05/20 02:53:05;;;;;;;8.00;6.00;;;;;;;9.29;100.00;97489.66;109212;1266;24318;-81
2023/05/20 02:55:38;;;;;;;8.40;6.60;;;;;;;9.31;100.00;97490.11;109151;1269;22520;-81
2023/05/20 02:58:09;;;;;;;7.80;6.20;;;;;;;9.33;100.00;97485.58;109144;1269;22518;-81
2023/05/20 03:00:40;;;;;;;5.90;5.20;;;;;;;9.35;100.00;97483.95;109193;1272;22587;-81
2023/05/20 03:03:12;;;;;;;7.00;5.70;;;;;;;9.37;100.00;97485.19;109186;1266;22748;-81
2023/05/20 03:05:44;;;;;;;6.10;4.80;;;;;;;9.40;100.00;97484.52;109159;1250;22576;-81
2023/05/20 03:08:15;;;;;;;6.30;5.50;;;;;;;9.43;100.00;97483.41;109195;1272;24153;-81
2023/05/20 03:10:46;;;;;;;5.60;4.80;;;;;;;9.44;100.00;97483.17;109124;1273;23060;-81
2023/05/20 03:13:17;;;;;;;6.30;5.20;;;;;;;9.46;100.00;97484.34;109163;1269;24180;-81
2023/05/20 03:15:48;;;;;;;6.00;5.00;;;;;;;9.47;100.00;97483.30;109164;1273;25633;-81
2023/05/20 03:18:19;;;;;;;7.30;5.60;;;;;;;9.49;100.00;97484.80;109183;1273;23253;-81
2023/05/20 03:20:50;;;;;;;7.20;5.30;;;;;;;9.51;100.00;97489.95;109165;1272;22469;-81
2023/05/20 03:23:21;;;;;;;6.50;5.40;;;;;;;9.53;100.00;97493.83;109178;1269;22523;-81
2023/05/20 03:25:52;;;;;;;7.00;5.50;;;;;;;9.55;100.00;97489.44;109211;1272;25411;-81
2023/05/20 03:28:22;;;;;;;7.00;5.30;;;;;;;9.55;100.00;97483.98;109141;1272;24204;-82
2023/05/20 03:30:53;;;;;;;6.40;5.20;;;;;;;9.56;100.00;97489.23;109185;1266;22525;-82
2023/05/20 03:33:26;;;;;;;7.20;5.50;;;;;;;9.57;100.00;97495.40;109195;1272;22609;-82
2023/05/20 03:35:56;;;;;;;6.60;5.30;;;;;;;9.57;100.00;97496.41;109179;1272;22508;-81
2023/05/20 03:38:27;;;;;;;6.60;5.80;;;;;;;9.58;100.00;97494.31;109160;1272;25198;-81
2023/05/20 03:40:58;;;;;;;6.40;5.50;;;;;;;9.59;100.00;97493.80;109126;1272;23742;-81
2023/05/20 03:43:29;;;;;;;7.20;5.70;;;;;;;9.61;100.00;97495.14;109165;1266;24609;-81
2023/05/20 03:46:00;;;;;;;6.80;5.40;;;;;;;9.63;100.00;97493.35;109167;1266;23689;-81
2023/05/20 03:48:31;;;;;;;7.10;5.90;;;;;;;9.64;100.00;97491.82;109211;1266;22522;-81
2023/05/20 03:51:02;;;;;;;6.80;5.30;;;;;;;9.66;100.00;97494.42;109190;1269;24765;-81
2023/05/20 03:53:33;;;;;;;7.70;5.60;;;;;;;9.68;100.00;97494.86;109174;1272;23050;-81
2023/05/20 03:56:04;;;;;;;7.80;5.90;;;;;;;9.69;100.00;97498.96;109210;1272;24190;-81
2023/05/20 03:58:37;;;;;;;6.80;5.80;;;;;;;9.72;100.00;97499.36;109191;1269;22517;-81
2023/05/20 04:01:08;;;;;;;8.10;6.20;;;;;;;9.73;100.00;97501.08;109206;1259;22499;-81
2023/05/20 04:03:40;;;;;;;8.90;5.90;;;;;;;9.74;100.00;97501.14;109202;1272;22592;-81
2023/05/20 04:06:11;;;;;;;7.50;5.70;;;;;;;9.76;100.00;97500.36;109193;1273;22945;-81
2023/05/20 04:08:42;;;;;;;9.40;6.30;;;;;;;9.77;100.00;97498.62;109198;1272;24087;-81
2023/05/20 04:11:13;;;;;;;6.80;5.90;;;;;;;9.79;100.00;97498.68;109177;1272;22468;-82
2023/05/20 04:13:45;;;;;;;7.30;5.80;;;;;;;9.80;100.00;97495.52;109160;1266;22563;-81
2023/05/20 04:16:16;;;;;;;7.10;6.10;;;;;;;9.82;100.00;97495.48;109186;1267;22588;-81
2023/05/20 04:18:47;;;;;;;8.10;6.00;;;;;;;9.84;100.00;97494.91;109213;1272;22617;-81
2023/05/20 04:21:18;;;;;;;8.40;6.60;;;;;;;9.87;100.00;97494.01;109133;1272;23371;-81
2023/05/20 04:23:49;;;;;;;8.10;6.60;;;;;;;9.89;100.00;97495.77;109206;1272;22556;-81
2023/05/20 04:26:21;;;;;;;8.40;6.30;;;;;;;9.92;100.00;97491.17;109171;1266;24316;-81
2023/05/20 04:28:52;;;;;;;7.30;6.50;;;;;;;9.95;100.00;97493.58;109152;1273;22525;-81
2023/05/20 04:31:25;;;;;;;7.30;6.30;;;;;;;9.96;100.00;97498.09;109173;1273;24267;-81
2023/05/20 04:33:56;;;;;;;8.20;6.40;;;;;;;9.98;100.00;97494.81;109157;1266;23711;-82
2023/05/20 04:36:28;;;;;;;9.00;6.60;;;;;;;10.00;100.00;97496.88;109198;1273;22529;-82
2023/05/20 04:39:00;;;;;;;8.30;6.60;;;;;;;10.03;100.00;97498.00;109161;1272;22535;-81
2023/05/20 04:41:31;;;;;;;8.70;6.50;;;;;;;10.05;100.00;97499.03;109177;1250;22564;-82
2023/05/20 04:44:02;;;;;;;9.80;7.10;;;;;;;10.10;100.00;97498.90;109154;1272;22501;-82
2023/05/20 04:46:33;;;;;;;8.10;6.90;;;;;;;10.14;100.00;97494.81;109163;1273;22514;-81
2023/05/20 04:49:04;;;;;;;9.20;6.70;;;;;;;10.16;100.00;97495.67;109158;1269;23929;-82
2023/05/20 04:51:35;;;;;;;8.70;7.00;;;;;;;10.17;100.00;97494.20;109164;1266;22572;-81
2023/05/20 04:54:07;;;;;;;9.40;7.50;;;;;;;10.19;100.00;97494.42;109140;1272;22567;-81
2023/05/20 04:56:38;;;;;;;8.00;6.90;;;;;;;10.22;100.00;97500.28;109184;1272;22514;-81
2023/05/20 04:59:10;;;;;;;8.90;7.30;;;;;;;10.26;100.00;97502.23;109201;1266;22511;-82
2023/05/20 05:01:41;;;;;;;9.80;7.60;;;;;;;10.33;100.00;97508.70;109185;1266;23493;-81
2023/05/20 05:04:12;;;;;;;9.60;7.30;;;;;;;10.37;100.00;97505.70;109162;1272;23062;-82
2023/05/20 05:06:43;;;;;;;9.00;7.50;;;;;;;10.43;100.00;97506.88;109172;1266;24254;-81
2023/05/20 05:09:15;;;;;;;9.00;7.10;;;;;;;10.48;100.00;97507.23;109251;1272;24199;-81
2023/05/20 05:11:46;;;;;;;8.40;7.20;;;;;;;10.52;100.00;97504.64;109128;1266;22573;-81
2023/05/20 05:14:17;;;;;;;8.90;7.30;;;;;;;10.56;100.00;97500.80;109056;1270;22522;-81
2023/05/20 05:16:48;;;;;;;9.60;7.50;;;;;;;10.61;100.00;97502.48;109128;1269;23785;-82
2023/05/20 05:19:19;;;;;;;9.70;8.10;;;;;;;10.65;100.00;97499.10;109079;1273;25288;-81
2023/05/20 05:21:51;;;;;;;10.50;7.50;;;;;;;10.73;100.00;97495.88;109176;1268;23978;-82
2023/05/20 05:24:22;;;;;;;8.70;7.60;;;;;;;10.78;100.00;97497.69;109162;1270;22573;-82
2023/05/20 05:26:57;;;;;;;7.10;6.30;;;;;;;10.82;100.00;97497.48;109145;1262;22524;-82
2023/05/20 05:29:28;;;;;;;9.00;7.90;;;;;;;10.83;100.00;97498.66;109142;1268;22584;-82
2023/05/20 05:31:58;;;;;;;9.20;7.10;;;;;;;10.86;100.00;97498.70;109161;1274;22527;-81
2023/05/20 05:34:29;;;;;;;8.60;7.30;;;;;;;10.92;100.00;97503.02;109140;1273;22530;-81
2023/05/20 05:37:00;;;;;;;9.70;7.30;;;;;;;10.97;100.00;97506.02;109163;1273;22564;-81
2023/05/20 05:39:31;;;;;;;10.10;8.10;;;;;;;11.00;100.00;97502.16;109135;1271;22624;-81
2023/05/20 05:42:02;;;;;;;8.40;7.30;;;;;;;11.06;100.00;97505.68;109177;1272;22462;-82
2023/05/20 05:44:34;;;;;;;9.00;7.80;;;;;;;11.14;100.00;97504.77;109222;1269;22664;-81
2023/05/20 05:47:06;;;;;;;9.30;7.00;;;;;;;11.22;100.00;97503.41;109183;1272;22567;-81
2023/05/20 05:49:37;;;;;;;10.10;7.80;;;;;;;11.27;100.00;97502.97;109151;1272;22944;-81
2023/05/20 05:52:08;;;;;;;9.90;7.80;;;;;;;11.33;100.00;97499.10;109178;1272;23746;-81
2023/05/20 05:54:39;;;;;;;8.00;7.20;;;;;;;11.40;100.00;97501.66;109156;1271;22528;-81
2023/05/20 05:57:11;;;;;;;11.20;7.60;;;;;;;11.44;100.00;97504.23;109209;1272;22620;-81
2023/05/20 05:59:42;;;;;;;9.00;7.60;;;;;;;11.46;100.00;97507.16;109161;1272;25450;-81
2023/05/20 06:02:13;;;;;;;8.40;6.80;;;;;;;11.47;100.00;97507.58;109202;1266;22459;-81
2023/05/20 06:04:45;;;;;;;8.00;6.70;;;;;;;11.50;100.00;97512.58;109162;1265;22580;-82
2023/05/20 06:07:16;;;;;;;8.90;7.20;;;;;;;11.45;100.00;97513.36;109185;1273;22559;-81
2023/05/20 06:09:47;;;;;;;8.90;7.60;;;;;;;11.49;100.00;97510.45;109171;1272;24353;-81
2023/05/20 06:12:18;;;;;;;8.40;7.00;;;;;;;11.58;100.00;97511.60;109220;1272;22527;-81
2023/05/20 06:14:50;;;;;;;8.00;7.20;;;;;;;11.71;100.00;97509.08;109181;1272;23264;-81
2023/05/20 06:17:21;;;;;;;9.00;7.30;;;;;;;11.79;100.00;97510.27;109172;1272;25231;-81
2023/05/20 06:19:52;;;;;;;9.90;7.90;;;;;;;11.80;100.00;97509.25;109165;1272;24263;-81
2023/05/20 06:22:23;;;;;;;8.50;7.00;;;;;;;11.78;100.00;97506.65;109191;1269;22515;-81
2023/05/20 06:24:59;;;;;;;8.90;8.00;;;;;;;11.93;100.00;97510.73;109209;1269;22748;-81
2023/05/20 06:27:30;;;;;;;8.00;7.10;;;;;;;12.12;100.00;97508.98;109194;1269;23783;-81
2023/05/20 06:30:01;;;;;;;8.30;7.30;;;;;;;12.27;100.00;97506.65;109171;1266;22461;-81
2023/05/20 06:32:32;;;;;;;9.10;7.00;;;;;;;12.40;100.00;97506.16;109205;1272;22534;-81
2023/05/20 06:35:04;;;;;;;7.40;6.40;;;;;;;12.79;100.00;97504.00;109194;1272;24221;-82
2023/05/20 06:37:35;;;;;;;7.90;6.40;;;;;;;14.23;100.00;97501.09;109192;1272;22472;-82
2023/05/20 06:40:08;;;;;;;7.00;6.20;;;;;;;14.71;100.00;97499.73;109172;1272;22525;-82
2023/05/20 06:42:39;;;;;;;7.10;6.10;;;;;;;15.14;100.00;97500.54;109195;1272;23987;-81
2023/05/20 06:45:12;;;;;;;7.00;6.30;;;;;;;15.40;100.00;97497.49;109185;1272;22575;-82
2023/05/20 06:47:43;;;;;;;6.20;5.30;;;;;;;15.77;95.34;97503.06;109215;1266;23884;-82
2023/05/20 06:50:15;;;;;;;6.60;5.60;;;;;;;16.25;96.82;97500.11;109125;1272;22721;-83
2023/05/20 06:52:45;;;;;;;5.30;4.50;;;;;;;18.96;97.25;97495.92;109204;1272;22525;-82
2023/05/20 06:55:17;;;;;;;6.10;5.50;;;;;;;21.28;80.99;97492.46;109166;1272;22741;-82
2023/05/20 06:57:47;;;;;;;5.20;4.70;;;;;;;22.93;74.80;97486.11;109167;1272;22650;-83
2023/05/20 07:00:19;;;;;;;4.00;3.60;;;;;;;23.97;67.05;97481.48;109166;1272;22514;-83
2023/05/20 07:02:50;;;;;;;4.60;4.10;;;;;;;24.42;55.19;97480.15;109175;1272;22514;-83
2023/05/20 07:05:23;;;;;;;4.20;3.80;;;;;;;23.69;53.10;97478.27;109202;1272;22566;-83
2023/05/20 07:08:02;;;;;;;6.00;4.50;;;;;;;22.03;57.54;97480.13;109232;1272;22519;-82
2023/05/20 07:10:33;;;;;;;5.50;4.90;;;;;;;21.59;64.96;97474.45;109179;1272;22469;-83
2023/05/20 07:13:04;;;;;;;5.60;5.10;;;;;;;22.49;68.68;97470.33;109217;1272;22522;-83
2023/05/20 07:15:35;;;;;;;5.00;4.50;;;;;;;23.41;65.33;97466.84;109191;1269;23532;-82
2023/05/20 07:18:06;;;;;;;5.20;4.70;;;;;;;21.91;58.45;97470.63;109164;1250;22568;-82
2023/05/20 07:20:37;;;;;;;5.50;4.70;;;;;;;20.28;61.26;97466.55;109190;1272;22559;-83
2023/05/20 07:23:08;;;;;;;5.20;4.70;;;;;;;20.48;66.50;97461.06;109160;1272;22574;-83
2023/05/20 07:25:39;;;;;;;6.10;5.60;;;;;;;21.09;68.33;97463.39;109204;1272;22742;-83
2023/05/20 07:28:11;;;;;;;6.60;5.90;;;;;;;21.50;65.27;97456.13;109200;1273;22593;-83
2023/05/20 07:30:45;;;;;;;6.60;5.50;;;;;;;21.76;68.18;97450.55;109175;1269;25233;-82
2023/05/20 07:33:16;;;;;;;5.60;5.00;;;;;;;23.02;68.63;97446.70;109181;1273;22474;-83
2023/05/20 07:35:47;;;;;;;5.30;4.80;;;;;;;23.86;67.64;97443.75;109198;1266;22461;-83
2023/05/20 07:38:18;;;;;;;5.70;4.70;;;;;;;25.14;67.77;97444.86;109190;1267;22508;-83
2023/05/20 07:40:50;;;;;;;5.50;5.00;;;;;;;26.00;62.63;97441.58;109178;1266;23046;-83
2023/05/20 07:43:21;;;;;;;4.60;4.10;;;;;;;26.29;63.09;97444.36;109196;1269;25255;-83
2023/05/20 07:45:52;;;;;;;4.20;3.90;;;;;;;28.62;63.62;97436.33;109170;1272;22482;-83
2023/05/20 07:48:23;;;;;;;4.40;4.10;;;;;;;29.59;59.16;97430.67;109175;1269;22575;-83
2023/05/20 07:50:56;;;;;;;4.80;4.40;;;;;;;30.10;57.49;97435.35;109224;1272;24256;-83
2023/05/20 07:53:27;;;;;;;4.20;3.80;;;;;;;30.26;57.48;97430.69;109223;1272;24193;-83
2023/05/20 07:55:58;;;;;;;6.20;4.10;;;;;;;30.39;54.51;97430.42;109184;1272;23283;-83
2023/05/20 07:58:30;;;;;;;5.20;4.70;;;;;;;29.56;52.74;97425.81;109224;1272;22517;-83
2023/05/20 08:01:01;;;;;;;5.00;4.10;;;;;;;28.68;53.02;97423.52;109213;1272;22562;-83
2023/05/20 08:03:32;;;;;;;4.70;4.30;;;;;;;28.58;53.40;97425.55;109216;1269;22578;-83
2023/05/20 08:06:03;;;;;;;7.20;4.80;;;;;;;27.52;51.36;97425.14;109163;1269;22601;-83
2023/05/20 08:08:35;;;;;;;5.50;4.80;;;;;;;26.27;51.42;97432.20;109227;1272;25443;-82
2023/05/20 08:11:06;;;;;;;6.00;5.10;;;;;;;25.96;53.50;97430.85;109150;1272;22494;-82
2023/05/20 08:13:37;;;;;;;5.30;4.80;;;;;;;26.07;52.24;97429.91;109205;1272;25309;-82
2023/05/20 08:16:08;;;;;;;5.40;4.90;;;;;;;26.07;51.18;97429.77;109184;1269;22591;-82
2023/05/20 08:18:39;;;;;;;8.90;5.80;;;;;;;26.17;51.80;97423.27;109181;1272;22783;-82
2023/05/20 08:21:10;;;;;;;6.40;5.50;;;;;;;25.62;52.87;97423.02;109164;1272;24319;-83
2023/05/20 08:23:41;;;;;;;6.10;5.50;;;;;;;26.06;53.37;97423.23;109215;1266;22463;-82
2023/05/20 08:26:12;;;;;;;6.30;5.70;;;;;;;25.68;52.85;97425.33;109202;1268;22518;-82
2023/05/20 08:28:43;;;;;;;5.80;5.20;;;;;;;26.69;54.36;97423.52;109182;1272;22586;-82
2023/05/20 08:31:14;;;;;;;6.00;5.50;;;;;;;28.64;49.75;97418.64;109160;1272;22441;-83
2023/05/20 08:33:45;;;;;;;5.50;5.00;;;;;;;30.37;50.35;97421.70;109173;1272;22539;-83
2023/05/20 08:36:18;;;;;;;6.10;5.00;;;;;;;32.33;49.53;97417.90;109187;1272;22508;-83
2023/05/20 08:38:49;;;;;;;5.10;4.60;;;;;;;33.92;47.72;97413.91;109207;1272;22556;-83
2023/05/20 08:41:21;;;;;;;5.60;5.10;;;;;;;34.67;45.40;97415.07;109208;1272;22507;-83
2023/05/20 08:43:53;;;;;;;6.50;4.90;;;;;;;33.64;44.47;97408.50;109187;1269;25403;-83
2023/05/20 08:46:25;;;;;;;5.20;4.80;;;;;;;33.96;44.34;97407.50;109150;1272;22535;-83
2023/05/20 08:48:58;;;;;;;5.30;4.80;;;;;;;34.98;43.89;97410.39;109172;1272;22521;-83
2023/05/20 08:51:29;;;;;;;6.10;5.60;;;;;;;35.77;42.94;97408.81;109188;1269;22597;-83
2023/05/20 08:54:00;;;;;;;5.80;5.00;;;;;;;36.04;40.73;97408.17;109148;1272;22513;-83
2023/05/20 08:56:33;;;;;;;6.70;6.10;;;;;;;36.38;41.03;97405.06;109243;1272;24272;-83
2023/05/20 08:59:05;;;;;;;7.10;5.80;;;;;;;36.02;39.57;97404.03;109179;1272;22490;-83
2023/05/20 09:01:41;;;;;;;6.90;6.20;;;;;;;34.37;39.66;97404.39;109199;1272;22490;-83
2023/05/20 09:04:13;;;;;;;8.30;7.00;;;;;;;32.30;40.64;97403.35;109172;1272;22663;-83
2023/05/20 09:06:48;;;;;;;8.60;6.80;;;;;;;30.61;41.63;97412.77;109170;1272;22458;-83
2023/05/20 09:09:19;;;;;;;8.70;6.90;;;;;;;29.25;42.74;97408.98;109159;1272;23900;-83
2023/05/20 09:11:50;;;;;;;6.80;6.20;;;;;;;28.14;43.47;97407.33;109161;1272;22525;-83
2023/05/20 09:14:22;;;;;;;7.90;6.60;;;;;;;27.28;44.85;97405.60;109146;1272;22529;-83
2023/05/20 09:16:53;;;;;;;8.80;7.90;;;;;;;26.64;46.27;97406.80;109196;1269;22463;-83
2023/05/20 09:19:26;;;;;;;8.10;7.20;;;;;;;25.76;45.04;97411.59;109189;1251;23941;-83
2023/05/20 09:21:57;;;;;;;8.60;7.70;;;;;;;24.79;47.58;97405.25;109191;1272;22545;-82
2023/05/20 09:24:28;;;;;;;8.60;7.80;;;;;;;24.63;48.91;97403.93;109191;1272;22582;-83
2023/05/20 09:26:59;;;;;;;9.30;8.50;;;;;;;24.45;48.70;97401.70;109196;1272;22498;-83
2023/05/20 09:29:34;;;;;;;8.60;7.30;;;;;;;23.79;49.80;97397.14;109188;1272;22559;-82
2023/05/20 09:32:07;;;;;;;10.10;7.70;;;;;;;23.49;50.78;97392.17;109205;1272;22575;-82
2023/05/20 09:34:37;;;;;;;9.30;8.30;;;;;;;23.33;51.95;97392.23;109205;1266;22778;-83
2023/05/20 09:37:09;;;;;;;10.00;8.80;;;;;;;23.26;52.59;97394.96;109184;1269;22579;-83
2023/05/20 09:39:50;;;;;;;9.30;8.40;;;;;;;23.21;52.77;97394.73;109157;1272;30043;-83
2023/05/20 09:42:27;;;;;;;9.30;8.40;;;;;;;23.02;52.46;97393.46;109190;1250;22526;-82
2023/05/20 09:45:00;;;;;;;9.90;8.90;;;;;;;22.77;54.00;97390.90;109183;1263;22522;-82
2023/05/20 09:47:32;;;;;;;11.30;10.10;;;;;;;22.60;54.92;97393.89;109187;1272;22575;-82
2023/05/20 09:50:09;;;;;;;9.70;8.70;;;;;;;22.69;56.05;97391.33;109195;1272;23139;-82
2023/05/20 09:52:41;;;;;;;11.90;10.00;;;;;;;22.86;56.60;97397.59;109228;1272;23860;-83
2023/05/20 09:55:12;;;;;;;12.40;10.50;;;;;;;22.81;56.27;97398.52;109197;1269;24186;-83
2023/05/20 09:57:43;;;;;;;12.10;9.80;;;;;;;22.20;55.78;97398.20;109181;1272;25407;-82
2023/05/20 10:00:17;;;;;;;12.20;10.80;;;;;;;21.73;57.74;97397.78;109199;1269;26009;-82
2023/05/20 10:02:50;;;;;;;12.10;10.50;;;;;;;21.84;58.64;97395.91;109199;1272;22558;-82
2023/05/20 10:05:24;;;;;;;12.90;11.30;;;;;;;21.98;58.74;97391.77;109184;1269;22514;-83
2023/05/20 10:08:28;;;;;;;12.40;10.30;;;;;;;22.07;59.24;97392.80;109152;1269;25440;-82
2023/05/20 10:11:09;;;;;;;13.00;11.40;;;;;;;22.09;59.35;97386.38;109181;1250;23898;-82
2023/05/20 10:14:00;;;;;;;12.70;11.50;;;;;;;22.12;59.65;97388.84;109197;1272;22507;-82
2023/05/20 10:16:40;;;;;;;12.80;11.50;;;;;;;22.00;60.08;97394.46;109165;1272;22573;-82
2023/05/20 10:19:27;;;;;;;13.20;11.80;;;;;;;21.88;60.31;97394.44;109177;1266;22559;-82
2023/05/20 10:22:03;;;;;;;14.30;12.20;;;;;;;21.83;61.03;97394.34;109116;1274;22579;-82
2023/05/20 10:24:36;;;;;;;13.80;12.30;;;;;;;21.90;61.34;97392.29;109109;1273;22580;-82
2023/05/20 10:27:10;;;;;;;15.10;12.10;;;;;;;21.85;61.07;97394.50;109146;1271;22518;-82
2023/05/20 10:29:50;;;;;;;13.30;12.10;;;;;;;21.72;61.47;97395.52;109142;1273;25280;-83
2023/05/20 10:32:30;;;;;;;13.90;12.10;;;;;;;21.80;62.19;97397.92;109189;1269;24218;-82
2023/05/20 10:35:05;;;;;;;13.40;12.00;;;;;;;21.81;60.93;97394.64;109146;1272;23702;-82
2023/05/20 10:37:44;;;;;;;13.00;11.40;;;;;;;21.33;61.23;97394.54;109170;1272;25281;-82
2023/05/20 10:40:19;;;;;;;13.50;12.20;;;;;;;21.17;62.86;97390.80;109102;1272;24059;-82
2023/05/20 10:42:50;;;;;;;14.10;12.40;;;;;;;21.24;62.76;97393.58;109183;1272;22566;-82
2023/05/20 10:45:31;;;;;;;14.60;13.10;;;;;;;21.23;62.73;97392.86;109206;1272;22518;-82
2023/05/20 10:48:02;;;;;;;17.50;14.60;;;;;;;21.31;64.13;97393.13;109164;1267;24210;-83
2023/05/20 10:50:38;;;;;;;16.60;14.80;;;;;;;21.43;63.54;97395.18;109151;1269;22831;-82
2023/05/20 10:53:15;;;;;;;15.80;13.40;;;;;;;21.40;63.69;97391.48;109187;1269;22517;-82
2023/05/20 10:55:52;;;;;;;18.50;16.70;;;;;;;21.49;64.39;97385.55;109246;1272;22619;-83
2023/05/20 10:58:24;;;;;;;22.30;16.70;;;;;;;21.53;64.18;97384.61;109205;1269;25300;-82
2023/05/20 11:00:56;;;;;;;17.80;16.00;;;;;;;21.52;63.73;97376.41;109213;1272;22828;-82
2023/05/20 11:03:27;;;;;;;18.10;16.20;;;;;;;21.48;64.47;97371.05;109181;1272;23235;-82
2023/05/20 11:05:58;;;;;;;17.70;15.80;;;;;;;21.55;65.15;97372.35;109133;1266;22486;-83
2023/05/20 11:08:31;;;;;;;18.40;15.60;;;;;;;21.60;65.32;97370.54;109180;1272;22525;-82
2023/05/20 11:11:02;;;;;;;17.50;15.80;;;;;;;21.51;64.88;97372.29;109185;1272;25938;-82
2023/05/20 11:13:33;;;;;;;16.20;14.60;;;;;;;21.39;64.74;97365.91;109166;1272;22478;-82
2023/05/20 11:16:05;;;;;;;18.70;16.80;;;;;;;21.25;65.36;97365.30;109123;1269;23071;-82
2023/05/20 11:18:36;;;;;;;18.00;16.10;;;;;;;21.27;65.89;97360.35;109179;1270;24855;-83
2023/05/20 11:21:07;;;;;;;19.70;17.20;;;;;;;21.42;66.16;97358.10;109191;1269;22563;-82
2023/05/20 11:23:38;;;;;;;18.90;16.70;;;;;;;21.42;65.60;97354.02;109199;1267;22545;-82
2023/05/20 11:26:09;;;;;;;19.80;17.80;;;;;;;21.32;65.89;97350.20;109206;1272;24212;-82
2023/05/20 11:28:40;;;;;;;20.20;18.10;;;;;;;21.21;66.20;97349.98;109148;1272;22535;-82
2023/05/20 11:31:11;;;;;;;19.70;17.70;;;;;;;21.16;66.56;97346.70;109110;1269;22521;-82
2023/05/20 11:33:45;;;;;;;22.10;18.80;;;;;;;21.20;67.07;97341.38;109163;1272;22517;-82
2023/05/20 11:36:17;;;;;;;19.60;17.30;;;;;;;21.21;67.07;97341.87;109121;1272;23777;-82
2023/05/20 11:38:48;;;;;;;20.60;18.40;;;;;;;21.25;67.14;97338.88;109190;1272;22560;-82